CEB456 RPVI-RPLL
Flight info
| Callsign | CEB456 |
|---|---|
| Flight time | 0h 43m |
| Altitude | 32000 |
| Route | LAMBO1N LAMBO B472 IBAGO IBAGO7R |
| Aircraft | A320/M-SDE3FGHIRWY/LB1 |
Departure
| Time | 2026-04-25 06:59 |
|---|---|
| Airport | Iloilo International Airport (RPVI) |
Arrival
| Time | 2026-04-25 07:42 |
|---|---|
| Airport | Ninoy Aquino International Airport (RPLL) |
| Time | Latitude | Longitude | Altitude | Speed | Heading |
|---|---|---|---|---|---|
| 2026-04-25 06:50 | 10.83114 | 122.49652 | 145 ft | 1 kts | 110° |
| 2026-04-25 06:50 | 10.83120 | 122.49636 | 142 ft | 3 kts | 112° |
| 2026-04-25 06:50 | 10.83128 | 122.49617 | 140 ft | 3 kts | 117° |
| 2026-04-25 06:51 | 10.83138 | 122.49599 | 140 ft | 3 kts | 124° |
| 2026-04-25 06:51 | 10.83150 | 122.49583 | 140 ft | 3 kts | 145° |
| 2026-04-25 06:51 | 10.83165 | 122.49576 | 140 ft | 2 kts | 193° |
| 2026-04-25 06:51 | 10.83169 | 122.49577 | 140 ft | 0 kts | 200° |
| 2026-04-25 06:53 | 10.83160 | 122.49574 | 140 ft | 4 kts | 200° |
| 2026-04-25 06:54 | 10.83111 | 122.49555 | 140 ft | 10 kts | 200° |
| 2026-04-25 06:54 | 10.83040 | 122.49517 | 140 ft | 12 kts | 231° |
| 2026-04-25 06:54 | 10.83046 | 122.49436 | 140 ft | 13 kts | 289° |
| 2026-04-25 06:54 | 10.83077 | 122.49348 | 141 ft | 14 kts | 290° |
| 2026-04-25 06:55 | 10.83079 | 122.49256 | 141 ft | 14 kts | 230° |
| 2026-04-25 06:55 | 10.82990 | 122.49218 | 140 ft | 14 kts | 199° |
| 2026-04-25 06:55 | 10.82907 | 122.49187 | 141 ft | 12 kts | 199° |
| 2026-04-25 06:55 | 10.82804 | 122.49148 | 141 ft | 17 kts | 200° |
| 2026-04-25 06:56 | 10.82681 | 122.49103 | 140 ft | 22 kts | 200° |
| 2026-04-25 06:56 | 10.82545 | 122.49052 | 142 ft | 19 kts | 199° |
| 2026-04-25 06:56 | 10.82425 | 122.49008 | 143 ft | 17 kts | 200° |
| 2026-04-25 06:56 | 10.82332 | 122.48979 | 143 ft | 10 kts | 181° |
| 2026-04-25 06:57 | 10.82272 | 122.48992 | 143 ft | 6 kts | 186° |
| 2026-04-25 06:57 | 10.82248 | 122.48977 | 143 ft | 3 kts | 231° |
| 2026-04-25 06:57 | 10.82246 | 122.48965 | 143 ft | 1 kts | 268° |
| 2026-04-25 06:57 | 10.82263 | 122.48948 | 143 ft | 4 kts | 341° |
| 2026-04-25 06:58 | 10.82284 | 122.48956 | 143 ft | 5 kts | 30° |
| 2026-04-25 06:58 | 10.82328 | 122.48973 | 143 ft | 10 kts | 19° |
| 2026-04-25 06:58 | 10.82544 | 122.49054 | 142 ft | 67 kts | 20° |
| 2026-04-25 06:58 | 10.83180 | 122.49289 | 142 ft | 125 kts | 20° |
| 2026-04-25 06:59 | 10.84105 | 122.49627 | 454 ft | 145 kts | 20° |
| 2026-04-25 06:59 | 10.85049 | 122.49968 | 1113 ft | 144 kts | 22° |
| 2026-04-25 06:59 | 10.85995 | 122.50318 | 1875 ft | 146 kts | 22° |
| 2026-04-25 06:59 | 10.87002 | 122.50694 | 2446 ft | 164 kts | 22° |
| 2026-04-25 07:00 | 10.88135 | 122.51117 | 2713 ft | 184 kts | 22° |
| 2026-04-25 07:00 | 10.89418 | 122.51596 | 2946 ft | 209 kts | 21° |
| 2026-04-25 07:00 | 10.90866 | 122.52134 | 3314 ft | 234 kts | 21° |
| 2026-04-25 07:00 | 10.92479 | 122.52678 | 3788 ft | 254 kts | 12° |
| 2026-04-25 07:01 | 10.94278 | 122.52454 | 4543 ft | 272 kts | 339° |
| 2026-04-25 07:01 | 10.95903 | 122.51443 | 5388 ft | 280 kts | 326° |
| 2026-04-25 07:01 | 10.97409 | 122.50139 | 6217 ft | 287 kts | 321° |
| 2026-04-25 07:01 | 10.98881 | 122.48771 | 6999 ft | 292 kts | 321° |
| 2026-04-25 07:02 | 11.00414 | 122.47388 | 7820 ft | 295 kts | 322° |
| 2026-04-25 07:02 | 11.01987 | 122.46045 | 8597 ft | 299 kts | 323° |
| 2026-04-25 07:02 | 11.03631 | 122.44709 | 9384 ft | 304 kts | 324° |
| 2026-04-25 07:02 | 11.05316 | 122.43391 | 10136 ft | 308 kts | 325° |
| 2026-04-25 07:03 | 11.07041 | 122.42070 | 10740 ft | 316 kts | 325° |
| 2026-04-25 07:03 | 11.08873 | 122.40681 | 10933 ft | 340 kts | 325° |
| 2026-04-25 07:03 | 11.10836 | 122.39197 | 11116 ft | 362 kts | 324° |
| 2026-04-25 07:03 | 11.12883 | 122.37643 | 11603 ft | 371 kts | 324° |
| 2026-04-25 07:04 | 11.14953 | 122.36062 | 12241 ft | 375 kts | 324° |
| 2026-04-25 07:04 | 11.17184 | 122.34667 | 12892 ft | 378 kts | 335° |
| 2026-04-25 07:04 | 11.19604 | 122.33605 | 13564 ft | 380 kts | 337° |
| 2026-04-25 07:04 | 11.22056 | 122.32547 | 14163 ft | 383 kts | 337° |
| 2026-04-25 07:05 | 11.24525 | 122.31484 | 14750 ft | 385 kts | 337° |
| 2026-04-25 07:05 | 11.26977 | 122.30429 | 15327 ft | 387 kts | 337° |
| 2026-04-25 07:05 | 11.29482 | 122.29350 | 15906 ft | 390 kts | 337° |
| 2026-04-25 07:05 | 11.31974 | 122.28275 | 16472 ft | 392 kts | 338° |
| 2026-04-25 07:06 | 11.34480 | 122.27192 | 17031 ft | 394 kts | 337° |
| 2026-04-25 07:06 | 11.37028 | 122.26086 | 17574 ft | 396 kts | 338° |
| 2026-04-25 07:06 | 11.39559 | 122.24985 | 18130 ft | 398 kts | 338° |
| 2026-04-25 07:06 | 11.42123 | 122.23869 | 18584 ft | 401 kts | 337° |
| 2026-04-25 07:07 | 11.44710 | 122.22746 | 19003 ft | 404 kts | 337° |
| 2026-04-25 07:07 | 11.47290 | 122.21629 | 19413 ft | 408 kts | 337° |
| 2026-04-25 07:07 | 11.49906 | 122.20496 | 19829 ft | 412 kts | 337° |
| 2026-04-25 07:07 | 11.52578 | 122.19337 | 20248 ft | 415 kts | 337° |
| 2026-04-25 07:08 | 11.55229 | 122.18184 | 20650 ft | 419 kts | 337° |
| 2026-04-25 07:08 | 11.57922 | 122.17014 | 21045 ft | 422 kts | 336° |
| 2026-04-25 07:08 | 11.60647 | 122.15829 | 21434 ft | 426 kts | 336° |
| 2026-04-25 07:08 | 11.63358 | 122.14651 | 21815 ft | 429 kts | 336° |
| 2026-04-25 07:09 | 11.66139 | 122.13444 | 22210 ft | 433 kts | 336° |
| 2026-04-25 07:09 | 11.68904 | 122.12246 | 22601 ft | 436 kts | 336° |
| 2026-04-25 07:09 | 11.71726 | 122.11020 | 22992 ft | 439 kts | 336° |
| 2026-04-25 07:09 | 11.74524 | 122.09804 | 23377 ft | 443 kts | 336° |
| 2026-04-25 07:10 | 11.77354 | 122.08573 | 23700 ft | 445 kts | 336° |
| 2026-04-25 07:10 | 11.80221 | 122.07325 | 24054 ft | 447 kts | 336° |
| 2026-04-25 07:10 | 11.83097 | 122.06073 | 24405 ft | 448 kts | 336° |
| 2026-04-25 07:10 | 11.85938 | 122.04835 | 24745 ft | 449 kts | 336° |
| 2026-04-25 07:11 | 11.88831 | 122.03575 | 25090 ft | 450 kts | 335° |
| 2026-04-25 07:11 | 11.91701 | 122.02326 | 25432 ft | 452 kts | 335° |
| 2026-04-25 07:11 | 11.94609 | 122.01063 | 25780 ft | 453 kts | 335° |
| 2026-04-25 07:11 | 11.97525 | 121.99795 | 26139 ft | 454 kts | 335° |
| 2026-04-25 07:12 | 12.00416 | 121.98532 | 26479 ft | 455 kts | 335° |
| 2026-04-25 07:12 | 12.06283 | 121.95973 | 27142 ft | 459 kts | 335° |
| 2026-04-25 07:12 | 12.09213 | 121.94698 | 27462 ft | 460 kts | 335° |
| 2026-04-25 07:13 | 12.12169 | 121.93410 | 27778 ft | 462 kts | 335° |
| 2026-04-25 07:13 | 12.15108 | 121.92129 | 28080 ft | 463 kts | 335° |
| 2026-04-25 07:13 | 12.18086 | 121.90828 | 28381 ft | 465 kts | 335° |
| 2026-04-25 07:13 | 12.21042 | 121.89535 | 28678 ft | 466 kts | 335° |
| 2026-04-25 07:14 | 12.24044 | 121.88220 | 28973 ft | 468 kts | 335° |
| 2026-04-25 07:14 | 12.27057 | 121.86904 | 29263 ft | 470 kts | 335° |
| 2026-04-25 07:14 | 12.30070 | 121.85590 | 29570 ft | 470 kts | 335° |
| 2026-04-25 07:14 | 12.33078 | 121.84278 | 29982 ft | 469 kts | 335° |
| 2026-04-25 07:15 | 12.36029 | 121.82988 | 30315 ft | 468 kts | 335° |
| 2026-04-25 07:15 | 12.39028 | 121.81678 | 30615 ft | 468 kts | 335° |
| 2026-04-25 07:15 | 12.42028 | 121.80366 | 30895 ft | 469 kts | 335° |
| 2026-04-25 07:15 | 12.45033 | 121.79050 | 31185 ft | 470 kts | 335° |
| 2026-04-25 07:16 | 12.48042 | 121.77734 | 31472 ft | 471 kts | 335° |
| 2026-04-25 07:16 | 12.51053 | 121.76415 | 31753 ft | 471 kts | 335° |
| 2026-04-25 07:16 | 12.54074 | 121.75091 | 31869 ft | 472 kts | 335° |
| 2026-04-25 07:16 | 12.57091 | 121.73771 | 31895 ft | 471 kts | 335° |
| 2026-04-25 07:17 | 12.63111 | 121.71138 | 31888 ft | 470 kts | 335° |
| 2026-04-25 07:17 | 12.69122 | 121.68502 | 31892 ft | 470 kts | 335° |
| 2026-04-25 07:18 | 12.75129 | 121.65865 | 31897 ft | 470 kts | 335° |
| 2026-04-25 07:18 | 12.81088 | 121.63233 | 31896 ft | 470 kts | 334° |
| 2026-04-25 07:19 | 12.87110 | 121.60580 | 31894 ft | 469 kts | 335° |
| 2026-04-25 07:19 | 12.93119 | 121.57944 | 31898 ft | 469 kts | 334° |
| 2026-04-25 07:20 | 12.99122 | 121.55310 | 31895 ft | 469 kts | 334° |
| 2026-04-25 07:20 | 13.05088 | 121.52684 | 31893 ft | 469 kts | 334° |
| 2026-04-25 07:21 | 13.11088 | 121.50041 | 31898 ft | 469 kts | 334° |
| 2026-04-25 07:21 | 13.17059 | 121.47410 | 31903 ft | 468 kts | 334° |
| 2026-04-25 07:22 | 13.23052 | 121.44759 | 31900 ft | 468 kts | 334° |
| 2026-04-25 07:22 | 13.29034 | 121.42120 | 31887 ft | 467 kts | 334° |
| 2026-04-25 07:23 | 13.32011 | 121.40810 | 31359 ft | 465 kts | 334° |
| 2026-04-25 07:23 | 13.34994 | 121.39499 | 30661 ft | 465 kts | 334° |
| 2026-04-25 07:23 | 13.37922 | 121.38210 | 30015 ft | 464 kts | 334° |
| 2026-04-25 07:23 | 13.40888 | 121.36903 | 29226 ft | 463 kts | 334° |
| 2026-04-25 07:24 | 13.43848 | 121.35599 | 28550 ft | 461 kts | 334° |
| 2026-04-25 07:24 | 13.46759 | 121.34318 | 28370 ft | 447 kts | 334° |
| 2026-04-25 07:24 | 13.49570 | 121.33082 | 28233 ft | 433 kts | 334° |
| 2026-04-25 07:24 | 13.52235 | 121.31771 | 28105 ft | 418 kts | 327° |
| 2026-04-25 07:25 | 13.54690 | 121.30265 | 27975 ft | 405 kts | 332° |
| 2026-04-25 07:25 | 13.57295 | 121.29312 | 27629 ft | 393 kts | 342° |
| 2026-04-25 07:25 | 13.59046 | 121.28866 | 27215 ft | 388 kts | 345° |
| 2026-04-25 07:25 | 13.62558 | 121.28119 | 26322 ft | 383 kts | 346° |
| 2026-04-25 07:26 | 13.65154 | 121.27553 | 25636 ft | 379 kts | 345° |
| 2026-04-25 07:26 | 13.67704 | 121.26927 | 24973 ft | 376 kts | 343° |
| 2026-04-25 07:26 | 13.70200 | 121.26242 | 24321 ft | 373 kts | 342° |
| 2026-04-25 07:26 | 13.72682 | 121.25510 | 23683 ft | 370 kts | 341° |
| 2026-04-25 07:27 | 13.75145 | 121.24761 | 22975 ft | 368 kts | 341° |
| 2026-04-25 07:27 | 13.77599 | 121.24009 | 22284 ft | 364 kts | 341° |
| 2026-04-25 07:27 | 13.80012 | 121.23273 | 21636 ft | 360 kts | 341° |
| 2026-04-25 07:27 | 13.82418 | 121.22548 | 20657 ft | 364 kts | 342° |
| 2026-04-25 07:28 | 13.84853 | 121.21818 | 20066 ft | 358 kts | 341° |
| 2026-04-25 07:28 | 13.86448 | 121.21343 | 19323 ft | 364 kts | 342° |
| 2026-04-25 07:28 | 13.88918 | 121.20607 | 18124 ft | 376 kts | 342° |
| 2026-04-25 07:28 | 13.92311 | 121.19597 | 16219 ft | 390 kts | 342° |
| 2026-04-25 07:29 | 13.94083 | 121.19070 | 15234 ft | 397 kts | 342° |
| 2026-04-25 07:29 | 13.96763 | 121.18272 | 13789 ft | 405 kts | 343° |
| 2026-04-25 07:29 | 13.99496 | 121.17460 | 12266 ft | 410 kts | 343° |
| 2026-04-25 07:29 | 14.02227 | 121.16649 | 11112 ft | 404 kts | 343° |
| 2026-04-25 07:30 | 14.04832 | 121.15876 | 10830 ft | 375 kts | 343° |
| 2026-04-25 07:30 | 14.07221 | 121.15168 | 10698 ft | 346 kts | 343° |
| 2026-04-25 07:30 | 14.09444 | 121.14496 | 10580 ft | 321 kts | 340° |
| 2026-04-25 07:30 | 14.11314 | 121.13430 | 10358 ft | 300 kts | 317° |
| 2026-04-25 07:31 | 14.12569 | 121.11776 | 9873 ft | 292 kts | 300° |
| 2026-04-25 07:31 | 14.13536 | 121.09948 | 9234 ft | 289 kts | 297° |
| 2026-04-25 07:31 | 14.14459 | 121.08112 | 8595 ft | 287 kts | 297° |
| 2026-04-25 07:31 | 14.15366 | 121.06286 | 7955 ft | 286 kts | 297° |
| 2026-04-25 07:32 | 14.16265 | 121.04467 | 7338 ft | 284 kts | 297° |
| 2026-04-25 07:32 | 14.17158 | 121.02653 | 6729 ft | 283 kts | 297° |
| 2026-04-25 07:32 | 14.18043 | 121.00855 | 6135 ft | 281 kts | 297° |
| 2026-04-25 07:32 | 14.18898 | 120.99113 | 5904 ft | 265 kts | 297° |
| 2026-04-25 07:33 | 14.19710 | 120.97460 | 5445 ft | 260 kts | 297° |
| 2026-04-25 07:33 | 14.20526 | 120.95793 | 4940 ft | 260 kts | 297° |
| 2026-04-25 07:33 | 14.21330 | 120.94123 | 4389 ft | 260 kts | 297° |
| 2026-04-25 07:33 | 14.22131 | 120.92450 | 3826 ft | 261 kts | 296° |
| 2026-04-25 07:34 | 14.22941 | 120.90773 | 3522 ft | 262 kts | 297° |
| 2026-04-25 07:34 | 14.23737 | 120.89085 | 3485 ft | 262 kts | 297° |
| 2026-04-25 07:34 | 14.24537 | 120.87398 | 3479 ft | 262 kts | 296° |
| 2026-04-25 07:34 | 14.25538 | 120.85851 | 3478 ft | 258 kts | 320° |
| 2026-04-25 07:35 | 14.26919 | 120.84680 | 3436 ft | 257 kts | 326° |
| 2026-04-25 07:35 | 14.28337 | 120.83585 | 3254 ft | 248 kts | 327° |
| 2026-04-25 07:35 | 14.29690 | 120.82552 | 3072 ft | 239 kts | 327° |
| 2026-04-25 07:35 | 14.31019 | 120.81547 | 2877 ft | 235 kts | 327° |
| 2026-04-25 07:36 | 14.32342 | 120.80570 | 2639 ft | 232 kts | 333° |
| 2026-04-25 07:36 | 14.33832 | 120.80145 | 2479 ft | 219 kts | 8° |
| 2026-04-25 07:36 | 14.35251 | 120.80523 | 2481 ft | 205 kts | 25° |
| 2026-04-25 07:36 | 14.36544 | 120.81071 | 2481 ft | 202 kts | 26° |
| 2026-04-25 07:37 | 14.37848 | 120.81660 | 2470 ft | 201 kts | 27° |
| 2026-04-25 07:37 | 14.39126 | 120.82236 | 2481 ft | 200 kts | 27° |
| 2026-04-25 07:37 | 14.40241 | 120.83027 | 2478 ft | 197 kts | 52° |
| 2026-04-25 07:37 | 14.40983 | 120.84184 | 2503 ft | 187 kts | 63° |
| 2026-04-25 07:38 | 14.41607 | 120.85308 | 2491 ft | 176 kts | 62° |
| 2026-04-25 07:38 | 14.42207 | 120.86386 | 2468 ft | 167 kts | 63° |
| 2026-04-25 07:38 | 14.42762 | 120.87383 | 2470 ft | 157 kts | 63° |
| 2026-04-25 07:38 | 14.43295 | 120.88341 | 2409 ft | 152 kts | 64° |
| 2026-04-25 07:39 | 14.43819 | 120.89284 | 2274 ft | 152 kts | 62° |
| 2026-04-25 07:39 | 14.44333 | 120.90207 | 2116 ft | 146 kts | 63° |
| 2026-04-25 07:39 | 14.44829 | 120.91100 | 1917 ft | 141 kts | 64° |
| 2026-04-25 07:39 | 14.45318 | 120.91979 | 1758 ft | 142 kts | 63° |
| 2026-04-25 07:40 | 14.45804 | 120.92852 | 1564 ft | 140 kts | 64° |
| 2026-04-25 07:40 | 14.46289 | 120.93724 | 1382 ft | 139 kts | 64° |
| 2026-04-25 07:40 | 14.46769 | 120.94587 | 1219 ft | 138 kts | 65° |
| 2026-04-25 07:40 | 14.47248 | 120.95449 | 1049 ft | 140 kts | 64° |
| 2026-04-25 07:41 | 14.47728 | 120.96313 | 885 ft | 137 kts | 66° |
| 2026-04-25 07:41 | 14.48205 | 120.97166 | 692 ft | 139 kts | 63° |
| 2026-04-25 07:41 | 14.48680 | 120.98018 | 539 ft | 135 kts | 64° |
| 2026-04-25 07:41 | 14.49159 | 120.98865 | 323 ft | 139 kts | 65° |
| 2026-04-25 07:42 | 14.49645 | 120.99743 | 191 ft | 141 kts | 64° |
| 2026-04-25 07:42 | 14.50121 | 121.00604 | 65 ft | 127 kts | 64° |
| 2026-04-25 07:42 | 14.50463 | 121.01240 | 64 ft | 76 kts | 62° |
| 2026-04-25 07:42 | 14.50646 | 121.01559 | 65 ft | 33 kts | 60° |
| 2026-04-25 07:43 | 14.50776 | 121.01726 | 63 ft | 18 kts | 38° |
| 2026-04-25 07:43 | 14.50857 | 121.01785 | 68 ft | 15 kts | 20° |
| 2026-04-25 07:43 | 14.50924 | 121.01751 | 62 ft | 9 kts | 314° |
| 2026-04-25 07:43 | 14.50969 | 121.01704 | 63 ft | 9 kts | 315° |
| 2026-04-25 07:44 | 14.51015 | 121.01657 | 60 ft | 9 kts | 315° |
| 2026-04-25 07:44 | 14.51069 | 121.01603 | 58 ft | 11 kts | 315° |
| 2026-04-25 07:44 | 14.51127 | 121.01542 | 67 ft | 13 kts | 315° |
| 2026-04-25 07:44 | 14.51190 | 121.01477 | 65 ft | 13 kts | 315° |
| 2026-04-25 07:45 | 14.51255 | 121.01426 | 63 ft | 11 kts | 350° |
| 2026-04-25 07:45 | 14.51318 | 121.01473 | 61 ft | 14 kts | 52° |
| 2026-04-25 07:45 | 14.51382 | 121.01537 | 61 ft | 12 kts | 19° |
| 2026-04-25 07:45 | 14.51451 | 121.01491 | 66 ft | 12 kts | 314° |
| 2026-04-25 07:46 | 14.51504 | 121.01435 | 63 ft | 10 kts | 315° |
| 2026-04-25 07:46 | 14.51553 | 121.01385 | 62 ft | 9 kts | 315° |
| 2026-04-25 07:46 | 14.51599 | 121.01338 | 67 ft | 9 kts | 315° |
| 2026-04-25 07:46 | 14.51652 | 121.01312 | 69 ft | 8 kts | 15° |
| 2026-04-25 07:47 | 14.51695 | 121.01357 | 67 ft | 8 kts | 49° |
| 2026-04-25 07:47 | 14.51724 | 121.01389 | 67 ft | 5 kts | 43° |
| 2026-04-25 07:47 | 14.51747 | 121.01411 | 62 ft | 3 kts | 44° |
| 2026-04-25 07:47 | 14.51756 | 121.01421 | 65 ft | 1 kts | 44° |
| 2026-04-25 07:48 | 14.51758 | 121.01423 | 66 ft | 0 kts | 44° |